createdAt,value
2023-05-23T00:01:58.795Z,118.13
2023-05-23T00:04:28.376Z,23.92
2023-05-23T00:06:55.893Z,27.13
2023-05-23T00:09:23.014Z,77.80
2023-05-23T00:11:50.285Z,29.25
2023-05-23T00:14:21.795Z,23.10
2023-05-23T00:16:49.755Z,30.20
2023-05-23T00:19:17.980Z,23.55
2023-05-23T00:21:48.779Z,28.52
2023-05-23T00:24:18.684Z,84.53
2023-05-23T00:26:48.816Z,140.38
2023-05-23T00:29:16.921Z,114.72
2023-05-23T00:31:47.707Z,56.03
2023-05-23T00:34:17.903Z,58.83
2023-05-23T00:36:50.220Z,52.95
2023-05-23T00:39:19.909Z,51.00
2023-05-23T00:41:52.188Z,81.15
2023-05-23T00:44:20.846Z,43.63
2023-05-23T00:46:55.758Z,23.55
2023-05-23T00:49:23.210Z,28.25
2023-05-23T00:51:52.230Z,25.35
2023-05-23T00:54:24.521Z,28.40
2023-05-23T00:56:51.766Z,24.83
2023-05-23T00:59:22.778Z,28.25
2023-05-23T01:01:54.702Z,24.02
2023-05-23T01:04:26.590Z,25.65
2023-05-23T01:06:57.734Z,23.70
2023-05-23T01:09:27.338Z,21.80
2023-05-23T01:12:25.438Z,20.45
2023-05-23T01:15:08.807Z,19.02
2023-05-23T01:17:50.837Z,22.20
2023-05-23T01:21:03.178Z,22.38
2023-05-23T01:24:07.407Z,16.33
2023-05-23T01:26:35.164Z,15.75
2023-05-23T01:29:11.275Z,18.38
2023-05-23T01:31:45.736Z,17.77
2023-05-23T01:34:17.159Z,16.60
2023-05-23T01:36:50.588Z,16.00
2023-05-23T01:39:17.525Z,17.20
2023-05-23T01:41:44.981Z,20.92
2023-05-23T01:44:12.330Z,22.50
2023-05-23T01:49:09.522Z,16.70
2023-05-23T01:51:36.839Z,18.92
2023-05-23T01:56:33.942Z,15.50
2023-05-23T01:59:04.744Z,17.73
2023-05-23T02:01:33.563Z,16.50
2023-05-23T02:04:00.784Z,18.65
2023-05-23T02:06:32.270Z,16.42
2023-05-23T02:08:59.291Z,21.98
2023-05-23T02:11:26.971Z,17.42
2023-05-23T02:13:56.774Z,19.98
2023-05-23T02:16:33.288Z,20.48
2023-05-23T02:19:00.380Z,21.73
2023-05-23T02:21:27.347Z,19.67
2023-05-23T02:23:54.243Z,18.48
2023-05-23T02:26:23.609Z,19.88
2023-05-23T02:28:51.075Z,20.50
2023-05-23T02:31:18.397Z,16.85
2023-05-23T02:33:47.577Z,17.30
2023-05-23T02:41:11.600Z,19.95
2023-05-23T02:43:39.448Z,17.38
2023-05-23T02:46:09.071Z,18.67
2023-05-23T02:48:36.016Z,18.65
2023-05-23T02:51:03.007Z,17.98
2023-05-23T02:53:32.326Z,18.15
2023-05-23T02:56:02.055Z,18.48
2023-05-23T02:58:29.946Z,18.90
2023-05-23T03:00:58.434Z,18.75
2023-05-23T03:03:25.786Z,18.33
2023-05-23T03:05:55.385Z,16.25
2023-05-23T03:08:22.353Z,20.50
2023-05-23T03:10:51.468Z,17.35
2023-05-23T03:13:18.982Z,21.55
2023-05-23T03:15:46.520Z,20.20
2023-05-23T03:18:13.937Z,20.30
2023-05-23T03:20:43.050Z,19.38
2023-05-23T03:23:12.100Z,17.98
2023-05-23T03:25:42.224Z,20.10
2023-05-23T03:28:15.184Z,20.40
2023-05-23T03:30:42.154Z,21.33
2023-05-23T03:33:12.259Z,17.63
2023-05-23T03:35:39.449Z,17.02
2023-05-23T03:38:09.178Z,20.13
2023-05-23T03:40:36.115Z,21.27
2023-05-23T03:43:07.280Z,17.95
2023-05-23T03:45:38.227Z,18.02
2023-05-23T03:48:12.504Z,17.50
2023-05-23T03:50:40.924Z,23.05
2023-05-23T03:55:41.955Z,20.08
2023-05-23T03:58:12.007Z,17.67
2023-05-23T04:00:41.026Z,19.33
2023-05-23T04:03:15.669Z,21.67
2023-05-23T04:05:45.190Z,17.23
2023-05-23T04:08:13.108Z,23.60
2023-05-23T04:10:42.534Z,19.88
2023-05-23T04:13:11.040Z,19.23
2023-05-23T04:15:38.160Z,21.52
2023-05-23T04:18:12.218Z,20.88
2023-05-23T04:20:41.915Z,19.67
2023-05-23T04:23:08.823Z,18.85
2023-05-23T04:25:39.817Z,17.98
2023-05-23T04:28:21.879Z,19.63
2023-05-23T04:30:49.522Z,17.35
2023-05-23T04:33:19.836Z,19.13
2023-05-23T04:35:49.451Z,20.25
2023-05-23T04:38:17.275Z,24.80
2023-05-23T04:40:44.837Z,19.17
2023-05-23T04:43:33.734Z,20.13
2023-05-23T04:46:15.676Z,19.60
2023-05-23T04:48:46.627Z,17.88
2023-05-23T04:51:14.093Z,18.60
2023-05-23T04:53:54.412Z,18.73
2023-05-23T04:56:28.271Z,19.83
2023-05-23T04:58:56.146Z,19.23
2023-05-23T05:01:28.101Z,22.13
2023-05-23T05:03:57.520Z,19.85
2023-05-23T05:06:29.038Z,20.17
2023-05-23T05:08:55.984Z,21.15
2023-05-23T05:11:27.454Z,18.92
2023-05-23T05:13:55.161Z,20.83
2023-05-23T05:16:22.574Z,20.52
2023-05-23T05:18:53.020Z,22.38
2023-05-23T05:21:21.187Z,18.52
2023-05-23T05:23:52.676Z,20.60
2023-05-23T05:26:21.972Z,25.02
2023-05-23T05:28:50.733Z,31.75
2023-05-23T05:31:20.817Z,27.00
2023-05-23T05:33:50.511Z,25.80
2023-05-23T05:36:17.434Z,23.00
2023-05-23T05:38:45.842Z,29.48
2023-05-23T05:41:13.418Z,27.90
2023-05-23T05:43:46.565Z,29.10
2023-05-23T05:46:16.794Z,38.70
2023-05-23T05:48:46.107Z,38.40
2023-05-23T05:51:17.664Z,32.75
2023-05-23T05:53:44.957Z,37.60
2023-05-23T05:56:12.160Z,36.50
2023-05-23T05:58:39.536Z,37.33
2023-05-23T06:01:08.450Z,43.58
2023-05-23T06:03:35.831Z,45.22
2023-05-23T06:06:02.941Z,51.20
2023-05-23T06:08:30.353Z,53.70
2023-05-23T06:13:26.159Z,60.45
2023-05-23T06:15:54.475Z,58.17
2023-05-23T06:18:22.470Z,64.13
2023-05-23T06:20:53.283Z,55.17
2023-05-23T06:23:21.770Z,60.75
2023-05-23T06:30:43.277Z,58.72
2023-05-23T06:33:11.913Z,53.30
2023-05-23T06:35:38.922Z,53.55
2023-05-23T06:38:06.019Z,53.35
2023-05-23T06:40:35.425Z,54.00
2023-05-23T06:45:49.549Z,49.08
2023-05-23T06:48:21.329Z,46.75
2023-05-23T06:50:49.646Z,45.97
2023-05-23T06:53:19.801Z,51.65
2023-05-23T06:55:48.755Z,51.17
2023-05-23T06:58:18.961Z,48.47
2023-05-23T07:00:51.383Z,51.40
2023-05-23T07:03:27.617Z,52.58
2023-05-23T07:05:59.431Z,49.17
2023-05-23T07:08:26.775Z,48.65
2023-05-23T07:11:01.288Z,46.50
2023-05-23T07:13:37.234Z,44.40
2023-05-23T07:16:06.802Z,46.53
2023-05-23T07:18:39.412Z,46.28
2023-05-23T07:21:09.176Z,50.90
2023-05-23T07:23:37.120Z,44.85
2023-05-23T07:26:04.962Z,43.92
2023-05-23T07:28:45.601Z,45.90
2023-05-23T07:31:13.612Z,48.67
2023-05-23T07:33:44.072Z,43.05
2023-05-23T07:36:16.571Z,43.03
2023-05-23T07:38:43.697Z,42.50
2023-05-23T07:41:13.053Z,42.85
2023-05-23T07:43:41.060Z,43.40
2023-05-23T07:46:11.095Z,39.83
2023-05-23T07:48:38.706Z,38.90
2023-05-23T07:51:06.031Z,41.15
2023-05-23T07:53:33.498Z,40.63
2023-05-23T07:56:03.554Z,44.05
2023-05-23T07:58:37.886Z,40.28
2023-05-23T08:01:05.523Z,37.88
2023-05-23T08:04:02.491Z,46.38
2023-05-23T08:06:35.635Z,40.00
2023-05-23T08:09:07.144Z,42.97
2023-05-23T08:11:38.726Z,38.20
2023-05-23T08:14:07.181Z,44.10
2023-05-23T08:16:39.383Z,38.67
2023-05-23T08:19:11.720Z,35.50
2023-05-23T08:21:38.977Z,36.40
2023-05-23T08:24:06.174Z,37.50
2023-05-23T08:26:38.633Z,36.33
2023-05-23T08:29:10.634Z,35.88
2023-05-23T08:31:40.086Z,43.65
2023-05-23T08:34:07.964Z,36.50
2023-05-23T08:36:37.075Z,36.05
2023-05-23T08:39:06.930Z,35.75
2023-05-23T08:41:39.263Z,34.17
2023-05-23T08:44:10.815Z,29.42
2023-05-23T08:46:49.945Z,28.83
2023-05-23T08:49:34.629Z,32.10
2023-05-23T08:52:03.788Z,30.33
2023-05-23T08:54:34.030Z,30.73
2023-05-23T08:57:03.684Z,26.98
2023-05-23T08:59:38.333Z,29.23
2023-05-23T09:02:11.973Z,28.83
2023-05-23T09:04:43.453Z,25.75
2023-05-23T09:07:25.339Z,24.63
2023-05-23T09:09:55.825Z,25.27
2023-05-23T09:12:24.931Z,23.73
2023-05-23T09:14:54.199Z,28.13
2023-05-23T09:17:24.050Z,26.05
2023-05-23T09:19:52.885Z,23.70
2023-05-23T09:22:50.722Z,24.10
2023-05-23T09:25:19.106Z,22.52
2023-05-23T09:27:52.021Z,22.50
2023-05-23T09:30:19.255Z,20.75
2023-05-23T09:32:59.762Z,21.08
2023-05-23T09:35:29.073Z,18.58
2023-05-23T09:40:35.066Z,19.38
2023-05-23T09:43:05.363Z,18.85
2023-05-23T09:45:34.004Z,19.95
2023-05-23T09:48:03.995Z,19.67
2023-05-23T09:50:33.811Z,19.55
2023-05-23T09:53:06.061Z,16.10
2023-05-23T09:55:33.280Z,18.08
2023-05-23T10:00:28.826Z,18.70
2023-05-23T10:03:08.463Z,17.33
2023-05-23T10:05:45.738Z,17.33
2023-05-23T10:08:48.227Z,18.85
2023-05-23T10:11:16.504Z,19.52
2023-05-23T10:13:49.614Z,17.58
2023-05-23T10:16:24.696Z,22.23
2023-05-23T10:18:59.340Z,20.30
2023-05-23T10:21:46.194Z,15.95
2023-05-23T10:24:17.944Z,15.50
2023-05-23T10:26:48.446Z,19.00
2023-05-23T10:29:15.372Z,16.17
2023-05-23T10:31:42.837Z,15.95
2023-05-23T10:34:24.953Z,15.90
2023-05-23T10:37:01.750Z,17.60
2023-05-23T10:39:35.052Z,15.35
2023-05-23T10:42:15.782Z,15.50
2023-05-23T10:44:42.912Z,15.30
2023-05-23T10:47:13.186Z,15.23
2023-05-23T10:49:48.359Z,18.25
2023-05-23T10:52:17.586Z,16.60
2023-05-23T10:54:46.961Z,14.27
2023-05-23T10:57:19.164Z,14.43
2023-05-23T10:59:47.169Z,15.13
2023-05-23T11:02:17.138Z,15.35
2023-05-23T11:04:44.994Z,16.60
2023-05-23T11:07:30.581Z,13.85
2023-05-23T11:10:11.363Z,16.75
2023-05-23T11:12:42.883Z,13.20
2023-05-23T11:15:18.848Z,15.50
2023-05-23T11:17:54.218Z,14.50
2023-05-23T11:20:31.185Z,12.07
2023-05-23T11:25:42.488Z,12.98
2023-05-23T11:28:11.814Z,11.52
2023-05-23T11:30:39.592Z,11.90
2023-05-23T11:33:09.729Z,12.57
2023-05-23T11:35:37.494Z,12.85
2023-05-23T11:38:07.340Z,14.13
2023-05-23T11:40:37.683Z,12.07
2023-05-23T11:43:11.579Z,14.30
2023-05-23T11:45:41.854Z,13.23
2023-05-23T11:48:13.060Z,12.40
2023-05-23T11:50:50.869Z,10.80
2023-05-23T11:53:21.068Z,12.48
2023-05-23T11:56:02.242Z,11.35
2023-05-23T11:58:37.298Z,12.77
2023-05-23T12:01:08.780Z,11.77
2023-05-23T12:03:48.178Z,11.48
2023-05-23T12:06:16.516Z,10.55
2023-05-23T12:08:48.611Z,10.75
2023-05-23T12:11:15.730Z,13.27
2023-05-23T12:16:11.220Z,12.18
2023-05-23T12:18:38.516Z,12.30
2023-05-23T12:21:08.373Z,11.65
2023-05-23T12:23:36.205Z,12.88
2023-05-23T12:26:10.373Z,9.65
2023-05-23T12:28:47.732Z,11.18
2023-05-23T12:31:18.898Z,11.85
2023-05-23T12:33:48.234Z,10.93
2023-05-23T12:36:25.369Z,10.00
2023-05-23T12:38:52.596Z,11.77
2023-05-23T12:43:57.176Z,10.95
2023-05-23T12:48:57.833Z,8.30
2023-05-23T12:51:24.817Z,11.23
2023-05-23T12:53:52.167Z,9.23
2023-05-23T12:56:21.076Z,8.38
2023-05-23T12:58:50.649Z,9.20
2023-05-23T13:01:21.916Z,11.32
2023-05-23T13:03:49.065Z,7.95
2023-05-23T13:08:44.125Z,8.32
2023-05-23T13:11:11.536Z,9.48
2023-05-23T13:13:38.647Z,7.57
2023-05-23T13:18:35.898Z,7.65
2023-05-23T13:21:02.966Z,5.78
2023-05-23T13:23:32.576Z,5.38
2023-05-23T13:26:00.049Z,7.80
2023-05-23T13:28:29.418Z,7.22
2023-05-23T13:30:59.441Z,5.85
2023-05-23T13:33:27.594Z,6.50
2023-05-23T13:35:54.716Z,6.43
2023-05-23T13:40:56.432Z,5.50
2023-05-23T13:43:25.754Z,7.93
2023-05-23T13:45:53.131Z,6.80
2023-05-23T13:48:20.385Z,9.98
2023-05-23T13:53:16.927Z,5.68
2023-05-23T13:55:47.368Z,6.50
2023-05-23T13:58:16.912Z,4.45
2023-05-23T14:00:49.218Z,8.48
2023-05-23T14:03:16.298Z,4.68
2023-05-23T14:05:48.319Z,4.80
2023-05-23T14:08:17.899Z,5.90
2023-05-23T14:10:45.173Z,5.70
2023-05-23T14:13:12.875Z,7.55
2023-05-23T14:15:42.895Z,5.72
2023-05-23T14:18:10.296Z,6.07
2023-05-23T14:20:37.286Z,7.03
2023-05-23T14:23:04.304Z,8.30
2023-05-23T14:25:31.313Z,6.20
2023-05-23T14:28:00.608Z,6.78
2023-05-23T14:30:27.828Z,6.32
2023-05-23T14:35:26.920Z,5.65
2023-05-23T14:37:53.870Z,7.25
2023-05-23T14:40:20.909Z,5.22
2023-05-23T14:42:47.945Z,4.95
2023-05-23T14:45:19.435Z,4.75
2023-05-23T14:47:47.220Z,6.50
2023-05-23T14:50:14.344Z,6.85
2023-05-23T14:55:09.076Z,5.43
2023-05-23T14:57:38.376Z,6.03
2023-05-23T15:00:10.207Z,6.25
2023-05-23T15:02:39.743Z,7.10
2023-05-23T15:05:07.804Z,5.03
2023-05-23T15:07:41.127Z,6.18
2023-05-23T15:10:09.022Z,5.15
2023-05-23T15:12:36.533Z,5.10
2023-05-23T15:15:04.119Z,4.85
2023-05-23T15:17:43.557Z,5.65
2023-05-23T15:20:11.766Z,6.55
2023-05-23T15:22:44.756Z,6.00
2023-05-23T15:25:12.097Z,4.30
2023-05-23T15:30:29.704Z,6.70
2023-05-23T15:33:00.684Z,4.72
2023-05-23T15:35:32.085Z,4.32
2023-05-23T15:37:59.543Z,5.38
2023-05-23T15:40:26.824Z,6.60
2023-05-23T15:42:53.977Z,8.30
2023-05-23T15:47:48.664Z,6.00
2023-05-23T15:50:17.607Z,4.95
2023-05-23T15:52:44.953Z,4.50
2023-05-23T15:57:39.416Z,5.93
2023-05-23T16:00:07.459Z,4.90
2023-05-23T16:02:39.138Z,4.43
2023-05-23T16:05:06.974Z,4.85
2023-05-23T16:07:36.694Z,5.00
2023-05-23T16:10:03.790Z,4.60
2023-05-23T16:12:31.390Z,8.60
2023-05-23T16:14:58.711Z,5.70
2023-05-23T16:17:25.781Z,4.28
2023-05-23T16:19:56.870Z,6.93
2023-05-23T16:22:24.028Z,5.55
2023-05-23T16:24:55.418Z,6.32
2023-05-23T16:27:23.881Z,4.95
2023-05-23T16:29:53.070Z,3.85
2023-05-23T16:32:20.164Z,4.40
2023-05-23T16:34:53.502Z,4.32
2023-05-23T16:37:23.935Z,6.47
2023-05-23T16:39:50.943Z,5.10
2023-05-23T16:42:17.944Z,4.25
2023-05-23T16:44:45.602Z,5.20
2023-05-23T16:47:12.713Z,5.07
2023-05-23T16:52:11.381Z,5.43
2023-05-23T16:54:38.526Z,5.47
2023-05-23T16:59:40.361Z,7.68
2023-05-23T17:02:11.497Z,5.25
2023-05-23T17:04:38.402Z,6.70
2023-05-23T17:07:09.614Z,5.35
2023-05-23T17:09:37.038Z,5.95
2023-05-23T17:12:04.319Z,10.13
2023-05-23T17:17:08.037Z,5.80
2023-05-23T17:19:37.953Z,6.28
2023-05-23T17:22:07.618Z,6.03
2023-05-23T17:24:37.289Z,6.68
2023-05-23T17:27:10.049Z,7.05
2023-05-23T17:29:39.496Z,6.45
2023-05-23T17:32:06.862Z,9.25
2023-05-23T17:34:36.107Z,8.82
2023-05-23T17:37:08.350Z,7.35
2023-05-23T17:39:35.287Z,7.10
2023-05-23T17:42:02.278Z,8.63
2023-05-23T17:44:29.465Z,8.25
2023-05-23T17:46:56.516Z,10.60
2023-05-23T17:49:23.722Z,9.25
2023-05-23T17:51:50.838Z,8.18
2023-05-23T17:54:19.837Z,8.30
2023-05-23T17:56:49.001Z,9.13
2023-05-23T17:59:21.425Z,8.77
2023-05-23T18:01:50.992Z,9.38
2023-05-23T18:04:18.472Z,9.45
2023-05-23T18:06:45.845Z,11.98
2023-05-23T18:11:44.356Z,10.15
2023-05-23T18:14:13.791Z,12.38
2023-05-23T18:16:41.496Z,9.15
2023-05-23T18:19:08.592Z,11.55
2023-05-23T18:21:35.824Z,10.50
2023-05-23T18:26:31.670Z,13.90
2023-05-23T18:29:02.960Z,8.88
2023-05-23T18:31:31.518Z,9.00
2023-05-23T18:33:59.054Z,9.48
2023-05-23T18:36:27.205Z,12.07
2023-05-23T18:38:54.353Z,10.90
2023-05-23T18:41:24.145Z,10.40
2023-05-23T18:43:51.325Z,8.25
2023-05-23T18:46:18.288Z,9.50
2023-05-23T18:48:47.677Z,9.40
2023-05-23T18:51:15.164Z,9.85
2023-05-23T18:53:45.218Z,9.52
2023-05-23T18:56:19.898Z,8.18
2023-05-23T18:58:50.174Z,7.35
2023-05-23T19:01:19.894Z,7.45
2023-05-23T19:03:47.162Z,7.28
2023-05-23T19:11:11.946Z,8.98
2023-05-23T19:13:39.055Z,14.05
2023-05-23T19:16:06.042Z,10.35
2023-05-23T19:18:33.041Z,11.02
2023-05-23T19:21:00.190Z,8.57
2023-05-23T19:23:29.386Z,8.95
2023-05-23T19:25:58.876Z,7.47
2023-05-23T19:28:26.154Z,11.80
2023-05-23T19:33:23.649Z,12.45
2023-05-23T19:35:51.588Z,9.60
2023-05-23T19:38:21.809Z,9.02
2023-05-23T19:40:48.899Z,11.88
2023-05-23T19:43:15.924Z,11.20
2023-05-23T19:45:47.676Z,9.98
2023-05-23T19:48:17.293Z,9.60
2023-05-23T19:50:44.635Z,9.07
2023-05-23T19:53:14.380Z,9.75
2023-05-23T19:55:42.763Z,12.02
2023-05-23T19:58:12.075Z,12.93
2023-05-23T20:00:41.310Z,13.98
2023-05-23T20:03:13.644Z,15.75
2023-05-23T20:05:40.873Z,11.88
2023-05-23T20:08:08.270Z,12.18
2023-05-23T20:10:37.525Z,11.43
2023-05-23T20:13:04.544Z,12.40
2023-05-23T20:18:06.586Z,15.07
2023-05-23T20:20:34.033Z,15.23
2023-05-23T20:23:01.069Z,12.80
2023-05-23T20:25:28.923Z,11.15
2023-05-23T20:27:58.200Z,12.20
2023-05-23T20:30:25.419Z,16.98
2023-05-23T20:35:24.608Z,15.57
2023-05-23T20:37:51.942Z,12.27
2023-05-23T20:40:22.308Z,13.00
2023-05-23T20:42:50.004Z,14.65
2023-05-23T20:45:20.376Z,14.20
2023-05-23T20:47:50.121Z,13.95
2023-05-23T20:52:48.755Z,14.77
2023-05-23T20:57:43.745Z,13.82
2023-05-23T21:00:12.623Z,17.17
2023-05-23T21:02:40.728Z,13.38
2023-05-23T21:05:08.883Z,14.82
2023-05-23T21:07:36.698Z,13.27
2023-05-23T21:10:04.688Z,12.85
2023-05-23T21:12:31.878Z,14.57
2023-05-23T21:14:58.916Z,14.15
2023-05-23T21:17:26.226Z,13.82
2023-05-23T21:19:53.434Z,14.35
2023-05-23T21:22:20.593Z,12.98
2023-05-23T21:24:47.695Z,14.55
2023-05-23T21:27:14.860Z,11.48
2023-05-23T21:29:43.089Z,14.60
2023-05-23T21:32:10.130Z,16.65
2023-05-23T21:34:40.365Z,10.40
2023-05-23T21:37:07.918Z,15.13
2023-05-23T21:39:51.383Z,9.95
2023-05-23T21:42:20.278Z,13.77
2023-05-23T21:44:47.326Z,13.57
2023-05-23T21:47:16.638Z,10.70
2023-05-23T21:49:44.020Z,10.27
2023-05-23T21:52:13.429Z,10.52
2023-05-23T21:54:40.480Z,11.02
2023-05-23T21:57:07.570Z,8.30
2023-05-23T21:59:34.715Z,9.57
2023-05-23T22:02:01.805Z,9.13
2023-05-23T22:04:28.895Z,8.68
2023-05-23T22:06:58.603Z,9.13
2023-05-23T22:09:26.599Z,9.10
2023-05-23T22:11:56.900Z,7.65
2023-05-23T22:14:23.960Z,8.13
2023-05-23T22:16:54.863Z,7.32
2023-05-23T22:19:26.168Z,5.78
2023-05-23T22:21:53.377Z,6.43
2023-05-23T22:24:20.389Z,6.90
2023-05-23T22:26:47.406Z,5.63
2023-05-23T22:29:14.794Z,6.40
2023-05-23T22:31:42.513Z,6.97
2023-05-23T22:34:14.579Z,6.20
2023-05-23T22:36:41.676Z,6.47
2023-05-23T22:39:11.405Z,6.45
2023-05-23T22:41:38.487Z,6.60
2023-05-23T22:44:05.793Z,6.65
2023-05-23T22:46:32.918Z,7.05
2023-05-23T22:49:00.543Z,6.65
2023-05-23T22:51:31.157Z,5.63
2023-05-23T22:54:00.667Z,5.10
2023-05-23T22:56:27.784Z,7.53
2023-05-23T22:58:57.009Z,5.47
2023-05-23T23:01:26.332Z,4.60
2023-05-23T23:03:53.561Z,5.78
2023-05-23T23:06:22.763Z,5.75
2023-05-23T23:08:52.756Z,5.28
2023-05-23T23:11:19.859Z,6.85
2023-05-23T23:13:47.139Z,6.55
2023-05-23T23:18:43.242Z,5.30
2023-05-23T23:21:13.955Z,5.50
2023-05-23T23:23:42.447Z,4.82
2023-05-23T23:26:09.598Z,8.45
2023-05-23T23:28:36.881Z,6.10
2023-05-23T23:35:58.348Z,5.90
2023-05-23T23:38:25.426Z,6.43
2023-05-23T23:40:54.573Z,7.75
2023-05-23T23:43:25.072Z,6.95
2023-05-23T23:45:52.875Z,6.47
2023-05-23T23:48:19.894Z,6.38
2023-05-23T23:50:46.866Z,6.65
2023-05-23T23:53:17.013Z,5.82
2023-05-23T23:55:44.349Z,6.15
